tititudorancea.com
Station Historical Data
Daily Summary for September 9, 2018 Units:  Metric    English   Both
« Previous Day
Next Day »
Daily Weekly Monthly Yearly Custom
  High: Low: Average:
Temperature: -17.8 °C 7.1 °C 11.8 °C
Dew Point: -17.8 °C 5.3 °C 8.1 °C
Humidity: Humidity % 68 % 78 %
Wind Speed: 0 km/h 0 km/h 11.3 km/h
Wind Gust: 0 km/h - -
Wind:- - WNW
Pressure: 0 hPa 1015.5 hPa -
Precipitation: 0 mm    
Historical Graphs
 
 
Ararat weather Find more about Weather in Ararat, AU


 



 


Tabular Data for September 9, 2018
Time Temperature Dew Point Pressure Wind Wind Speed Wind Gust Humidity Rainfall Rate (Hourly)
-17.8 °C -17.8 °C 0 hPa Calm     Humidity % 0 mm
00:04 10.6 °C 8.3 °C 1017.2 hPa NW 24.1 km/h 11.1 km/h 86 % 0 mm
00:09 10.7 °C 8.2 °C 1017.2 hPa NW 18.5 km/h 15.3 km/h 85 % 0 mm
00:14 10.7 °C 8.3 °C 1017.2 hPa NW 18.5 km/h 15 km/h 85 % 0 mm
00:19 10.8 °C 8.2 °C 1017.2 hPa NW 16.7 km/h 12.7 km/h 84 % 0 mm
00:24 10.8 °C 8.2 °C 1017.2 hPa NW 17.7 km/h 13.5 km/h 84 % 0 mm
00:29 10.8 °C 8 °C 1017.2 hPa WNW 14.8 km/h 11.9 km/h 83 % 0 mm
00:34 10.7 °C 7.9 °C 1017.2 hPa WNW 16.7 km/h 13.4 km/h 83 % 0 mm
00:39 10.7 °C 7.9 °C 1017.2 hPa NW 14.8 km/h 9.8 km/h 83 % 0 mm
00:44 10.6 °C 7.8 °C 1017.2 hPa WNW 18.5 km/h 14.6 km/h 83 % 0 mm
00:49 10.6 °C 7.7 °C 1017.2 hPa North 18.5 km/h 12.1 km/h 82 % 0 mm
00:54 10.6 °C 7.5 °C 1017.2 hPa NW 11.1 km/h 6 km/h 81 % 0 mm
00:59 10.7 °C 7.3 °C 1017.2 hPa WNW 16.7 km/h 3.4 km/h 80 % 0 mm
01:04 10.7 °C 7.4 °C 1017.2 hPa North 9.3 km/h 8 km/h 80 % 0 mm
01:09 10.7 °C 7.2 °C 1017.2 hPa WNW 7.4 km/h 3.5 km/h 79 % 0 mm
01:14 10.7 °C 7.2 °C 1016.8 hPa WNW 8 km/h 3.4 km/h 79 % 0 mm
01:19 10.7 °C 7.1 °C 1017.2 hPa North 12.9 km/h 9.5 km/h 78 % 0 mm
01:24 10.8 °C 6.9 °C 1017.2 hPa North 16.7 km/h 11.3 km/h 77 % 0 mm
01:29 10.8 °C 6.6 °C 1016.8 hPa NW 20.4 km/h 10 km/h 75 % 0 mm
01:34 10.9 °C 6.7 °C 1016.8 hPa NW 24.1 km/h 9.8 km/h 75 % 0 mm
01:39 11.1 °C 6.4 °C 1016.8 hPa WNW 22.2 km/h 11.1 km/h 73 % 0 mm
01:44 11.1 °C 6.4 °C 1016.8 hPa WNW 22.2 km/h 17.9 km/h 73 % 0 mm
01:49 11 °C 6.3 °C 1016.8 hPa WNW 19.3 km/h 12.4 km/h 73 % 0 mm
01:54 10.9 °C 6.9 °C 1016.8 hPa WNW 9.7 km/h 7.1 km/h 76 % 0 mm
01:59 10.9 °C 6.9 °C 1016.8 hPa WNW 14.8 km/h 7.1 km/h 76 % 0 mm
02:04 11 °C 6.6 °C 1016.8 hPa WNW 11.1 km/h 4.8 km/h 74 % 0 mm
02:09 10.9 °C 6.9 °C 1016.8 hPa North 9.3 km/h 8 km/h 76 % 0 mm
02:14 10.9 °C 6.4 °C 1017.2 hPa North 16.1 km/h 7.2 km/h 74 % 0 mm
02:19 10.9 °C 6.3 °C 1016.5 hPa North 24.1 km/h 10 km/h 73 % 0 mm
02:24 10.9 °C 6.3 °C 1016.5 hPa North 6.4 km/h 4.3 km/h 73 % 0 mm
02:29 10.9 °C 6.3 °C 1016.8 hPa North 7.4 km/h 6.3 km/h 73 % 0 mm
02:34 10.9 °C 6.3 °C 1016.5 hPa North 9.3 km/h 4.3 km/h 73 % 0 mm
02:39 10.9 °C 6.3 °C 1016.5 hPa North 8 km/h 4.5 km/h 73 % 0 mm
02:44 10.9 °C 6.5 °C 1016.5 hPa North 18.5 km/h 11.9 km/h 74 % 0 mm
02:49 10.9 °C 6.4 °C 1016.1 hPa North 14.8 km/h 8 km/h 74 % 0 mm
02:54 10.9 °C 6.4 °C 1016.1 hPa NNW 14.8 km/h 7.1 km/h 74 % 0 mm
02:59 10.9 °C 6.5 °C 1016.1 hPa North 13 km/h 7.1 km/h 74 % 0 mm
03:04 10.9 °C 6.5 °C 1015.8 hPa NNW 16.7 km/h 10.1 km/h 74 % 0 mm
03:09 10.9 °C 6.6 °C 1015.8 hPa North 16.7 km/h 8.2 km/h 75 % 0 mm
03:14 10.9 °C 6.6 °C 1015.8 hPa WNW 18.5 km/h 7.4 km/h 75 % 0 mm
03:19 10.9 °C 6.6 °C 1015.8 hPa NW 16.7 km/h 9.5 km/h 75 % 0 mm
03:24 10.9 °C 6.5 °C 1015.8 hPa NNW 19.3 km/h 12.6 km/h 74 % 0 mm
03:29 10.9 °C 6.5 °C 1015.8 hPa NW 18.5 km/h 10.1 km/h 74 % 0 mm
03:34 10.9 °C 6.5 °C 1015.5 hPa NW 17.7 km/h 13 km/h 74 % 0 mm
03:39 10.9 °C 6.5 °C 1015.5 hPa NW 9.3 km/h 9.5 km/h 74 % 0 mm
03:44 10.8 °C 6.2 °C 1015.5 hPa WNW 20.4 km/h 16.4 km/h 73 % 0 mm
03:49 10.7 °C 6 °C 1015.5 hPa WNW 18.5 km/h 12.7 km/h 73 % 0 mm
03:54 10.6 °C 5.9 °C 1015.8 hPa WNW 11.3 km/h 8.9 km/h 73 % 0 mm
03:59 10.4 °C 5.8 °C 1015.8 hPa North 11.3 km/h 9.5 km/h 73 % 0 mm
04:04 10.4 °C 5.6 °C 1016.1 hPa West 16.7 km/h 8.5 km/h 72 % 0 mm
04:09 10.4 °C 5.6 °C 1016.1 hPa North 8 km/h 7.2 km/h 72 % 0 mm
04:14 10.3 °C 5.5 °C 1016.1 hPa West 7.4 km/h 5.3 km/h 72 % 0 mm
04:19 10.3 °C 5.4 °C 1016.5 hPa West 11.1 km/h 8.9 km/h 72 % 0 mm
04:24 10.2 °C 5.3 °C 1016.5 hPa West 9.3 km/h 6.3 km/h 72 % 0 mm
04:29 10.1 °C 5.3 °C 1016.5 hPa West 6.4 km/h 4.7 km/h 72 % 0 mm
04:34 10.2 °C 5.3 °C 1016.5 hPa West 8 km/h 5.6 km/h 72 % 0 mm
04:39 10.2 °C 5.4 °C 1016.8 hPa West 9.7 km/h 6.8 km/h 72 % 0 mm
04:44 10.4 °C 5.8 °C 1016.8 hPa WNW 14.8 km/h 11.1 km/h 73 % 0 mm
04:49 10.6 °C 5.9 °C 1016.8 hPa WNW 18.5 km/h 11.4 km/h 73 % 0 mm
04:54 10.7 °C 6 °C 1016.5 hPa WNW 16.7 km/h 12.4 km/h 73 % 0 mm
04:59 10.6 °C 5.9 °C 1016.8 hPa WNW 14.8 km/h 10.3 km/h 73 % 0 mm
05:04 10.6 °C 6.1 °C 1016.5 hPa WNW 13 km/h 9.2 km/h 74 % 0 mm
05:09 10.6 °C 6.2 °C 1016.5 hPa WNW 14.8 km/h 12.4 km/h 74 % 0 mm
05:14 10.6 °C 6.3 °C 1016.8 hPa WNW 11.1 km/h 4.5 km/h 75 % 0 mm
05:19 10.6 °C 6.3 °C 1016.8 hPa WNW 12.9 km/h 6.9 km/h 75 % 0 mm
05:24 10.7 °C 6.4 °C 1017.2 hPa WNW 7.4 km/h 7.9 km/h 75 % 0 mm
05:29 10.7 °C 6.4 °C 1017.2 hPa WNW 9.3 km/h 8.4 km/h 75 % 0 mm
05:34 10.6 °C 6.6 °C 1017.2 hPa WNW 7.4 km/h 4.3 km/h 76 % 0 mm
05:39 10.5 °C 6.4 °C 1017.2 hPa WNW 11.1 km/h 7.9 km/h 76 % 0 mm
05:44 10.4 °C 6.4 °C 1017.2 hPa North 7.4 km/h 6.4 km/h 76 % 0 mm
05:49 10.3 °C 6.5 °C 1017.5 hPa North 5.6 km/h 5.3 km/h 77 % 0 mm
05:54 10.2 °C 6.4 °C 1017.5 hPa WNW 5.6 km/h 4.5 km/h 77 % 0 mm
05:59 10.1 °C 6.3 °C 1017.2 hPa WNW 5.6 km/h 3.2 km/h 77 % 0 mm
06:04 10 °C 6.3 °C 1017.5 hPa WNW 5.6 km/h 5.5 km/h 78 % 0 mm
06:09 9.9 °C 6.4 °C 1017.5 hPa North 5.6 km/h 2.9 km/h 79 % 0 mm
06:14 9.8 °C 6.3 °C 1017.5 hPa WNW 6.4 km/h 5.6 km/h 79 % 0 mm
06:19 9.7 °C 6.4 °C 1017.5 hPa WNW 5.6 km/h 4.3 km/h 80 % 0 mm
06:24 9.7 °C 6.6 °C 1017.5 hPa WNW 5.6 km/h 3.9 km/h 81 % 0 mm
06:29 9.7 °C 6.4 °C 1017.5 hPa WNW 5.6 km/h 4 km/h 80 % 0 mm
06:34 9.6 °C 6.3 °C 1017.8 hPa North 3.7 km/h   80 % 0 mm
06:39 9.5 °C 6.4 °C 1017.8 hPa North 5.6 km/h 1 km/h 81 % 0 mm
06:44 9.6 °C 6.5 °C 1017.8 hPa West 7.4 km/h 3.2 km/h 81 % 0 mm
06:49 9.8 °C 6.7 °C 1017.8 hPa West 13 km/h 5.6 km/h 81 % 0 mm
06:54 10.1 °C 6.6 °C 1017.8 hPa West 9.7 km/h 7.7 km/h 79 % 0 mm
06:59 10.3 °C 6.7 °C 1017.8 hPa West 16.7 km/h 10.1 km/h 78 % 0 mm
07:04 10.7 °C 6.7 °C 1017.8 hPa West 11.1 km/h 8.5 km/h 76 % 0 mm
07:09 10.8 °C 6.6 °C 1017.8 hPa North 11.1 km/h 8.5 km/h 75 % 0 mm
07:14 11 °C 6.7 °C 1017.8 hPa West 14.8 km/h 6.4 km/h 75 % 0 mm
07:19 11.1 °C 6.7 °C 1017.8 hPa West 16.7 km/h 8.5 km/h 74 % 0 mm
07:24 11.2 °C 6.9 °C 1017.8 hPa West 11.1 km/h 9.2 km/h 75 % 0 mm
07:29 11.3 °C 6.8 °C 1018.2 hPa West 13 km/h 10.9 km/h 74 % 0 mm
07:34 11.3 °C 7 °C 1018.2 hPa North 11.1 km/h 5.8 km/h 75 % 0 mm
07:39 11.3 °C 7 °C 1018.2 hPa West 6.4 km/h 3.4 km/h 75 % 0 mm
07:44 11.3 °C 6.9 °C 1017.8 hPa West 9.3 km/h 6.8 km/h 74 % 0 mm
07:49 11.4 °C 6.7 °C 1018.2 hPa West 4.8 km/h 2.6 km/h 73 % 0 mm
07:54 11.5 °C 6.6 °C 1017.8 hPa West 9.3 km/h 4.5 km/h 72 % 0 mm
07:59 11.6 °C 6.9 °C 1018.2 hPa North 12.9 km/h 7.9 km/h 73 % 0 mm
08:04 11.7 °C 7.2 °C 1018.2 hPa WNW 11.1 km/h 8.7 km/h 74 % 0 mm
08:09 11.6 °C 7.5 °C 1018.2 hPa WNW 7.4 km/h 6.3 km/h 76 % 0 mm
08:14 11.5 °C 7.6 °C 1018.2 hPa WNW 7.4 km/h 4.3 km/h 77 % 0 mm
08:19 11.5 °C 7.8 °C 1018.5 hPa North 5.6 km/h 4.5 km/h 78 % 0 mm
08:24 11.6 °C 7.9 °C 1018.5 hPa WNW 9.3 km/h 2.7 km/h 78 % 0 mm
08:29 11.8 °C 8.1 °C 1018.2 hPa WNW 7.4 km/h 6.3 km/h 78 % 0 mm
08:34 12.1 °C 7.9 °C 1018.5 hPa WNW 14.8 km/h 11.7 km/h 76 % 0 mm
08:39 12.3 °C 8 °C 1018.5 hPa WNW 11.1 km/h 8.5 km/h 75 % 0 mm
08:44 12.6 °C 7.8 °C 1018.8 hPa WNW 12.9 km/h 11.1 km/h 73 % 0 mm
08:49 12.6 °C 7.7 °C 1018.8 hPa WNW 16.7 km/h 13.4 km/h 72 % 0 mm
08:54 12.6 °C 7.7 °C 1018.8 hPa WNW 17.7 km/h 12.4 km/h 72 % 0 mm
08:59 12.6 °C 7.8 °C 1018.8 hPa North 18.5 km/h 13.5 km/h 73 % 0 mm
09:04 12.6 °C 8.1 °C 1018.8 hPa WNW 13 km/h 8.9 km/h 74 % 0 mm
09:09 12.7 °C 7.9 °C 1018.8 hPa NW 14.8 km/h 7.7 km/h 73 % 0 mm
09:14 12.8 °C 8.3 °C 1018.8 hPa NW 12.9 km/h 11.7 km/h 74 % 0 mm
09:19 12.9 °C 8.2 °C 1018.8 hPa NW 11.3 km/h 9.3 km/h 73 % 0 mm
09:24 13.1 °C 8.3 °C 1018.5 hPa NW 16.1 km/h 11.7 km/h 73 % 0 mm
09:29 13.4 °C 8.7 °C 1018.8 hPa NW 9.7 km/h 10.8 km/h 73 % 0 mm
09:34 13.3 °C 8.7 °C 1018.8 hPa North 13 km/h 7.9 km/h 74 % 0 mm
09:39 13 °C 8.7 °C 1018.8 hPa NNW 14.8 km/h 10.9 km/h 75 % 0 mm
09:44 12.8 °C 8.9 °C 1018.8 hPa NNW 13 km/h 8.9 km/h 77 % 0 mm
09:49 12.8 °C 9.1 °C 1018.8 hPa North 11.1 km/h 8.4 km/h 78 % 0 mm
09:54 12.7 °C 9 °C 1018.8 hPa North 11.1 km/h 6.9 km/h 78 % 0 mm
09:59 12.4 °C 9.1 °C 1019.2 hPa North 13 km/h 8.2 km/h 80 % 0 mm
10:04 12.4 °C 9.3 °C 1019.2 hPa North 13 km/h 9.7 km/h 81 % 0 mm
10:09 12.5 °C 9.3 °C 1019.2 hPa NNW 13 km/h 8.7 km/h 81 % 0 mm
10:14 12.9 °C 9.9 °C 1019.2 hPa North 13 km/h 6.1 km/h 82 % 0 mm
10:19 13.2 °C 9.8 °C 1019.2 hPa North 14.8 km/h 5.8 km/h 80 % 0 mm
10:24 13.2 °C 9.8 °C 1019.2 hPa North 5.6 km/h 6.4 km/h 80 % 0 mm
10:29 13.4 °C 9.8 °C 1019.2 hPa WNW 14.8 km/h 12.2 km/h 79 % 0 mm
10:34 13.7 °C 9.9 °C 1019.2 hPa WNW 18.5 km/h 6.4 km/h 78 % 0 mm
10:39 13.9 °C 9.7 °C 1019.5 hPa NW 18.5 km/h 12.4 km/h 76 % 0 mm
10:44 13.9 °C 9.6 °C 1019.5 hPa WNW 18.5 km/h 13.2 km/h 75 % 0 mm
10:49 13.8 °C 9.7 °C 1019.5 hPa WNW 16.7 km/h 13.5 km/h 76 % 0 mm
10:54 13.9 °C 9.6 °C 1019.5 hPa NW 22.2 km/h 19.3 km/h 75 % 0 mm
10:59 14.3 °C 9.6 °C 1019.5 hPa North 17.7 km/h 13.8 km/h 73 % 0 mm
11:04 14.7 °C 9.7 °C 1019.5 hPa West 16.7 km/h 15.8 km/h 72 % 0 mm
11:09 15 °C 9.3 °C 1019.5 hPa WNW 25.9 km/h 18.5 km/h 69 % 0 mm
11:14 14.9 °C 9.2 °C 1019.5 hPa WSW 22.2 km/h 10.9 km/h 69 % 0 mm
11:19 14.6 °C 8.8 °C 1019.5 hPa North 31.5 km/h 21.2 km/h 68 % 0 mm
11:24 14.2 °C 9.1 °C 1019.5 hPa WNW 29 km/h 22 km/h 71 % 0 mm
11:29 13.8 °C 9.1 °C 1019.5 hPa NW 24.1 km/h 15 km/h 73 % 0 mm
11:34 13.8 °C 9.3 °C 1019.5 hPa North 14.8 km/h 10.1 km/h 74 % 0 mm
11:39 13.8 °C 9.5 °C 1019.5 hPa NW 11.3 km/h 10.3 km/h 75 % 0 mm
11:44 14 °C 9.6 °C 1019.5 hPa NW 14.8 km/h 10.8 km/h 75 % 0 mm
11:49 14.2 °C 9.6 °C 1019.5 hPa North 22.5 km/h 14.2 km/h 74 % 0 mm
11:54 14.3 °C 9.3 °C 1019.5 hPa WNW 20.4 km/h 13.4 km/h 72 % 0 mm
11:59 14.4 °C 9.2 °C 1019.5 hPa West 19.3 km/h 9.3 km/h 71 % 0 mm
12:04 14.6 °C 9.3 °C 1019.5 hPa North 13 km/h 10 km/h 71 % 0 mm
12:09 14.6 °C 9.2 °C 1019.5 hPa West 17.7 km/h 13.2 km/h 70 % 0 mm
12:14 14.7 °C 9.3 °C 1019.5 hPa North 22.5 km/h 17.9 km/h 70 % 0 mm
12:19 14.7 °C 9.3 °C 1019.5 hPa WNW 16.1 km/h 17.4 km/h 70 % 0 mm
12:24 14.9 °C 9.2 °C 1019.2 hPa North 14.8 km/h 10.9 km/h 69 % 0 mm
12:29 15.3 °C 9.6 °C 1019.2 hPa North 14.8 km/h 15 km/h 69 % 0 mm
12:34 15.1 °C 9.4 °C 1019.2 hPa West 18.5 km/h 15.1 km/h 69 % 0 mm
12:39 15.2 °C 9.7 °C 1019.2 hPa West 18.5 km/h 6.8 km/h 70 % 0 mm
12:44 15.3 °C 9.7 °C 1019.2 hPa WNW 19.3 km/h 13.7 km/h 69 % 0 mm
12:49 15.3 °C 9.7 °C 1019.2 hPa WNW 16.7 km/h 12.4 km/h 69 % 0 mm
12:54 15.2 °C 9.5 °C 1018.8 hPa WNW 22.2 km/h 15.8 km/h 69 % 0 mm
12:59 15.2 °C 9.8 °C 1019.2 hPa WNW 12.9 km/h 10.8 km/h 70 % 0 mm
13:04 15.2 °C 9.7 °C 1018.8 hPa West 22.2 km/h 16.1 km/h 70 % 0 mm
13:09 14.8 °C 9.6 °C 1018.8 hPa WNW 22.2 km/h 15.1 km/h 71 % 0 mm
13:14 14.8 °C 9.6 °C 1018.8 hPa North 20.9 km/h 13.7 km/h 71 % 0 mm
13:19 15 °C 9.8 °C 1018.8 hPa WNW 20.4 km/h 14.3 km/h 71 % 0 mm
13:24 15.5 °C 10.3 °C 1018.8 hPa West 16.1 km/h 12.6 km/h 71 % 0 mm
13:29 15.6 °C 10.4 °C 1018.8 hPa WNW 18.5 km/h 14.2 km/h 71 % 0 mm
13:34 15.4 °C 9.8 °C 1018.8 hPa WNW 22.2 km/h 15.8 km/h 69 % 0 mm
13:39 15.1 °C 9.7 °C 1018.8 hPa North 18.5 km/h 15.4 km/h 70 % 0 mm
13:44 14.9 °C 9.7 °C 1018.8 hPa North 18.5 km/h 15 km/h 71 % 0 mm
13:49 14.9 °C 9.9 °C 1018.8 hPa WNW 18.5 km/h 10.5 km/h 72 % 0 mm
13:54 14.8 °C 9.6 °C 1018.8 hPa West 22.5 km/h 17.9 km/h 71 % 0 mm
13:59 14.8 °C 10.1 °C 1018.8 hPa West 18.5 km/h 11.6 km/h 73 % 0 mm
14:04 14.9 °C 10.1 °C 1018.8 hPa North 17.7 km/h 11.1 km/h 73 % 0 mm
14:09 14.8 °C 10.2 °C 1019.2 hPa WNW 20.4 km/h 11.7 km/h 74 % 0 mm
14:14 14.7 °C 10.1 °C 1019.2 hPa NNW 20.9 km/h 12.7 km/h 74 % 0 mm
14:19 14.5 °C 10.1 °C 1019.2 hPa WNW 18.5 km/h 15.9 km/h 75 % 0 mm
14:24 14.4 °C 10.4 °C 1019.2 hPa North 17.7 km/h 12.1 km/h 77 % 0 mm
14:29 14.1 °C 10.5 °C 1019.2 hPa North 18.5 km/h 9.7 km/h 79 % 0 mm
14:34 14.3 °C 10.9 °C 1019.2 hPa West 14.8 km/h 8.2 km/h 80 % 0 mm
14:39 14.8 °C 11 °C 1019.2 hPa NW 18.5 km/h 11.3 km/h 78 % 0 mm
14:44 14.8 °C 10.8 °C 1019.2 hPa NW 16.7 km/h 11.4 km/h 77 % 0 mm
14:49 14.8 °C 10.8 °C 1019.2 hPa North 18.5 km/h 10.1 km/h 77 % 0 mm
14:54 14.8 °C 10.6 °C 1019.2 hPa North 9.3 km/h 6.4 km/h 76 % 0 mm
14:59 14.9 °C 10.7 °C 1019.2 hPa West 14.8 km/h 14.6 km/h 76 % 0 mm
15:04 14.9 °C 10.2 °C 1019.2 hPa WNW 22.2 km/h 14.8 km/h 73 % 0 mm
15:09 14.9 °C 9.9 °C 1019.5 hPa West 22.2 km/h 15.6 km/h 72 % 0 mm
15:14 14.9 °C 10.2 °C 1019.5 hPa West 13 km/h 10.1 km/h 73 % 0 mm
15:19 14.8 °C 10.1 °C 1019.5 hPa North 20.4 km/h 16.1 km/h 73 % 0 mm
15:24 14.7 °C 10.3 °C 1019.5 hPa West 19.3 km/h 15.3 km/h 75 % 0 mm
15:29 14.6 °C 10.4 °C 1019.5 hPa North 14.5 km/h 10 km/h 76 % 0 mm
15:34 14.6 °C 10.2 °C 1019.5 hPa West 16.7 km/h 15.3 km/h 75 % 0 mm
15:39 14.6 °C 10.2 °C 1019.5 hPa WNW 20.4 km/h 9.2 km/h 75 % 0 mm
15:44 14.7 °C 10.3 °C 1019.5 hPa WNW 18.5 km/h 12.6 km/h 75 % 0 mm
15:49 14.8 °C 10.6 °C 1019.5 hPa North 9.7 km/h 8.2 km/h 76 % 0 mm
15:54 14.8 °C 10.4 °C 1019.5 hPa WNW 13 km/h 8.4 km/h 75 % 0 mm
15:59 14.9 °C 10.5 °C 1019.5 hPa West 13 km/h 9.5 km/h 75 % 0 mm
16:04 14.8 °C 10.4 °C 1019.5 hPa WNW 16.7 km/h 10.5 km/h 75 % 0 mm
16:09 14.9 °C 10.3 °C 1019.5 hPa West 14.8 km/h 9.8 km/h 74 % 0 mm
16:14 14.9 °C 10.3 °C 1019.5 hPa West 9.7 km/h 9.7 km/h 74 % 0 mm
16:19 14.9 °C 10.3 °C 1019.5 hPa West 9.7 km/h 6 km/h 74 % 0 mm
16:24 15 °C 10.4 °C 1019.5 hPa West 9.7 km/h 8 km/h 74 % 0 mm
16:29 15.2 °C 10.3 °C 1019.5 hPa WNW 16.1 km/h 11.6 km/h 73 % 0 mm
16:34 15 °C 10.2 °C 1019.5 hPa WNW 18.5 km/h 13.4 km/h 73 % 0 mm
16:39 14.8 °C 10.2 °C 1019.5 hPa WNW 11.1 km/h 7.4 km/h 74 % 0 mm
16:44 14.7 °C 10.3 °C 1019.5 hPa WNW 9.3 km/h 7.2 km/h 75 % 0 mm
16:49 14.7 °C 10.3 °C 1019.5 hPa North 9.7 km/h 7.9 km/h 75 % 0 mm
16:54 14.7 °C 10.3 °C 1019.9 hPa WNW 8 km/h 7.4 km/h 75 % 0 mm
16:59 14.7 °C 10.3 °C 1019.9 hPa North 16.1 km/h 12.1 km/h 75 % 0 mm
17:04 14.7 °C 10.3 °C 1019.9 hPa West 9.3 km/h 8 km/h 75 % 0 mm
17:09 14.7 °C 10.3 °C 1019.9 hPa West 9.7 km/h 6.9 km/h 75 % 0 mm
17:14 14.7 °C 10.3 °C 1019.9 hPa West 11.1 km/h 7.2 km/h 75 % 0 mm
17:19 14.6 °C 10.2 °C 1020.2 hPa WSW 13 km/h 7.2 km/h 75 % 0 mm
17:24 14.5 °C 10.1 °C 1020.2 hPa SW 17.7 km/h 12.1 km/h 75 % 0 mm
17:29 14.3 °C 10.1 °C 1020.2 hPa SW 13 km/h 8.7 km/h 76 % 0 mm
17:34 14.2 °C 10 °C 1020.5 hPa WSW 11.3 km/h 12.9 km/h 76 % 0 mm
17:39 14 °C 10.2 °C 1020.5 hPa North 18.5 km/h 10.9 km/h 78 % 0 mm
17:44 13.8 °C 10.3 °C 1020.5 hPa SW 11.1 km/h 6.8 km/h 79 % 0 mm
17:49 13.7 °C 10.3 °C 1020.5 hPa SW 11.1 km/h 9.5 km/h 80 % 0 mm
17:54 13.6 °C 10.4 °C 1020.5 hPa SW 11.1 km/h 7.9 km/h 81 % 0 mm
17:59 13.5 °C 10.3 °C 1020.5 hPa SW 7.4 km/h 4.5 km/h 81 % 0 mm
18:04 13.4 °C 10.4 °C 1020.5 hPa SW 11.1 km/h 7.7 km/h 82 % 0 mm
18:09 13.3 °C 10.3 °C 1020.5 hPa SW 8 km/h 7.4 km/h 82 % 0 mm
18:14 13.3 °C 10.3 °C 1020.9 hPa SW 9.7 km/h 7.9 km/h 82 % 0 mm
18:19 13.2 °C 10.1 °C 1020.9 hPa WSW 7.4 km/h 5.5 km/h 81 % 0 mm
18:24 13.1 °C 10.1 °C 1020.9 hPa WSW 7.4 km/h 6.1 km/h 82 % 0 mm
18:29 13.1 °C 10.1 °C 1020.9 hPa North 7.4 km/h 6 km/h 82 % 0 mm
18:34 12.9 °C 9.9 °C 1020.9 hPa SW 5.6 km/h 5.3 km/h 82 % 0 mm
18:39 12.9 °C 9.9 °C 1020.9 hPa WSW 6.4 km/h 4.7 km/h 82 % 0 mm
18:44 12.8 °C 9.9 °C 1021.2 hPa SW 3.7 km/h 1.9 km/h 83 % 0 mm
18:49 12.7 °C 9.9 °C 1021.2 hPa North 3.7 km/h 1.3 km/h 83 % 0 mm
18:54 12.7 °C 9.9 °C 1021.2 hPa WSW 3.7 km/h 2.1 km/h 83 % 0 mm
18:59 12.7 °C 9.8 °C 1021.2 hPa North 3.7 km/h 0.6 km/h 83 % 0 mm
19:04 12.6 °C 9.7 °C 1021.2 hPa SW 3.7 km/h 2.1 km/h 83 % 0 mm
19:09 12.5 °C 9.9 °C 1021.2 hPa WSW 1.9 km/h   84 % 0 mm
19:14 12.4 °C 9.8 °C 1021.2 hPa Calm     84 % 0 mm
19:19 12.3 °C 9.7 °C 1021.2 hPa Calm     84 % 0 mm
19:24 12.2 °C 9.6 °C 1021.2 hPa WSW 1.6 km/h 1 km/h 84 % 0 mm
19:29 12.1 °C 9.6 °C 1021.2 hPa WSW 3.7 km/h 2.3 km/h 85 % 0 mm
19:34 11.9 °C 9.5 °C 1021.2 hPa WSW 3.7 km/h 2.4 km/h 85 % 0 mm
19:39 11.9 °C 9.7 °C 1021.2 hPa SW 3.7 km/h 1.9 km/h 86 % 0 mm
19:44 11.9 °C 9.6 °C 1021.6 hPa WSW 3.7 km/h 2.7 km/h 86 % 0 mm
19:49 11.8 °C 9.5 °C 1021.6 hPa WSW 3.7 km/h 2.4 km/h 86 % 0 mm
19:54 11.6 °C 9.3 °C 1021.6 hPa North 3.7 km/h 2.3 km/h 86 % 0 mm
19:59 11.5 °C 9.2 °C 1021.9 hPa Calm     86 % 0 mm
20:04 11.3 °C 9 °C 1021.9 hPa Calm     86 % 0 mm
20:09 11.1 °C 9.1 °C 1021.9 hPa Calm     87 % 0 mm
20:14 11 °C 8.9 °C 1021.9 hPa SW 3.2 km/h 1.8 km/h 87 % 0 mm
20:19 10.8 °C 8.7 °C 1021.9 hPa Calm     87 % 0 mm
20:24 10.7 °C 8.8 °C 1021.9 hPa SW 3.7 km/h 2.6 km/h 88 % 0 mm
20:29 10.3 °C 8.3 °C 1022.2 hPa SW 5.6 km/h 4 km/h 87 % 0 mm
20:34 10.2 °C 8.3 °C 1022.2 hPa WSW 5.6 km/h 3.1 km/h 88 % 0 mm
20:39 10.2 °C 8.5 °C 1022.2 hPa WSW 5.6 km/h 3.1 km/h 89 % 0 mm
20:44 10.2 °C 8.3 °C 1022.6 hPa Calm     88 % 0 mm
20:49 10 °C 8.1 °C 1022.2 hPa Calm     88 % 0 mm
20:54 10 °C 8.3 °C 1022.6 hPa SW 3.7 km/h 2.6 km/h 89 % 0 mm
20:59 10 °C 8.3 °C 1022.6 hPa WSW 1.9 km/h 0.2 km/h 89 % 0 mm
21:04 9.9 °C 8.2 °C 1022.6 hPa Calm     89 % 0 mm
21:09 9.6 °C 7.7 °C 1022.6 hPa Calm     88 % 0 mm
21:14 9.3 °C 7.6 °C 1022.6 hPa Calm     89 % 0 mm
21:19 9.1 °C 7.4 °C 1022.6 hPa Calm     89 % 0 mm
21:24 8.9 °C 7.2 °C 1022.9 hPa Calm     89 % 0 mm
21:29 8.8 °C 7.2 °C 1022.9 hPa Calm     90 % 0 mm
21:34 8.7 °C 7.2 °C 1022.9 hPa Calm     90 % 0 mm
21:39 8.6 °C 7 °C 1022.9 hPa Calm     90 % 0 mm
21:44 8.4 °C 6.9 °C 1022.9 hPa Calm     90 % 0 mm
21:49 8.3 °C 6.8 °C 1023.2 hPa WSW 3.7 km/h 1 km/h 90 % 0 mm
21:54 8.3 °C 6.9 °C 1023.2 hPa SW 3.7 km/h 1.1 km/h 91 % 0 mm
21:59 8.2 °C 6.8 °C 1023.2 hPa Calm     91 % 0 mm
22:04 8.2 °C 6.8 °C 1023.2 hPa Calm     91 % 0 mm
22:09 7.9 °C 6.3 °C 1023.2 hPa Calm     90 % 0 mm
22:14 7.9 °C 6.5 °C 1023.2 hPa Calm     91 % 0 mm
22:19 7.9 °C 6.5 °C 1023.6 hPa Calm     91 % 0 mm
22:24 7.8 °C 6.6 °C 1023.6 hPa Calm     92 % 0 mm
22:29 7.8 °C 6.6 °C 1023.6 hPa Calm     92 % 0 mm
22:34 7.7 °C 6.3 °C 1023.6 hPa Calm     91 % 0 mm
22:39 7.8 °C 6.6 °C 1023.6 hPa Calm     92 % 0 mm
22:44 7.6 °C 6.2 °C 1023.6 hPa Calm     91 % 0 mm
22:49 7.5 °C 6.3 °C 1023.6 hPa Calm     92 % 0 mm
22:54 7.4 °C 6 °C 1023.6 hPa Calm     91 % 0 mm
22:59 7.3 °C 6.1 °C 1023.6 hPa Calm     92 % 0 mm
23:04 7.3 °C 6.1 °C 1023.6 hPa Calm     92 % 0 mm
23:09 7.3 °C 6.3 °C 1023.6 hPa Calm     93 % 0 mm
23:14 7.3 °C 6.1 °C 1023.6 hPa WSW 1.6 km/h   92 % 0 mm
23:19 7.3 °C 6.1 °C 1023.6 hPa Calm     92 % 0 mm
23:24 7.3 °C 6.1 °C 1023.9 hPa Calm     92 % 0 mm
23:29 7.2 °C 5.9 °C 1023.9 hPa Calm     92 % 0 mm
23:34 7.1 °C 6 °C 1023.9 hPa WSW 1.6 km/h 0.6 km/h 93 % 0 mm
23:39 7.1 °C 6 °C 1023.9 hPa WSW 3.7 km/h   93 % 0 mm
23:44 7.1 °C 6.1 °C 1023.9 hPa North 5.6 km/h 4.5 km/h 93 % 0 mm
23:49 7.4 °C 6.5 °C 1023.9 hPa WSW 1.9 km/h   94 % 0 mm
23:54 7.5 °C 6.4 °C 1023.9 hPa WSW 3.7 km/h 3.1 km/h 93 % 0 mm
23:59 7.6 °C 6.6 °C 1023.9 hPa WSW 5.6 km/h 3.7 km/h 93 % 0 mm
Ararat Weather
Compliments of Weather Underground - 2.25 mb
Click here to send mail.


ABOUT

Live weather data from Ararat, Victoria, Australia, 3377
Data uploaded from Cumulus every 5 minutes to Weather Underground.
This site then downloads the raw data for formatting and display.
Metric and imperial data can be displayed. Graphs and historical data available.
Includes Sun and Moon times and rain image live from BOM.

Check out Ararat Weather on Facebook, Twitter and Google +

Help support ongoing costs by checking out the ads





Follow @AraratWeather